Time;durP1;ratioP1;P1;durP2;ratioP2;P2;SDS_P1;SDS_P2;PMS_P1;PMS_P2;Temp;Humidity;BMP_temperature;BMP_pressure;BME280_temperature;BME280_humidity;BME280_pressure;Samples;Min_cycle;Max_cycle;Signal;HPM_P1;HPM_P2
2024/02/19 00:01:11;;;;;;;19.13;5.07;;;;;;;9.01;100.00;102521.41;5112427;28;20073;-72
2024/02/19 00:03:59;;;;;;;26.70;5.70;;;;;;;9.00;100.00;102521.63;5149048;28;20048;-72
2024/02/19 00:06:48;;;;;;;23.70;5.18;;;;;;;8.99;100.00;102530.81;5131294;28;20055;-72
2024/02/19 00:09:36;;;;;;;24.13;5.43;;;;;;;8.99;100.00;102533.53;5069624;28;20044;-72
2024/02/19 00:12:24;;;;;;;20.67;5.13;;;;;;;8.98;100.00;102538.16;5114091;28;20057;-72
2024/02/19 00:15:12;;;;;;;19.98;4.97;;;;;;;8.98;100.00;102538.16;5116319;28;20094;-73
2024/02/19 00:18:00;;;;;;;22.95;4.85;;;;;;;9.00;100.00;102535.22;5111913;28;20044;-72
2024/02/19 00:20:49;;;;;;;21.38;5.45;;;;;;;9.01;100.00;102536.88;5098285;28;20050;-73
2024/02/19 00:23:37;;;;;;;27.42;5.30;;;;;;;9.02;100.00;102541.25;5109046;28;20043;-72
2024/02/19 00:26:25;;;;;;;28.65;5.95;;;;;;;9.01;100.00;102545.03;5115295;28;20040;-72
2024/02/19 00:29:13;;;;;;;18.75;4.68;;;;;;;9.02;100.00;102543.97;5114283;28;20069;-72
2024/02/19 00:32:02;;;;;;;20.98;5.03;;;;;;;9.02;100.00;102544.84;5105328;27;20039;-72
2024/02/19 00:34:51;;;;;;;20.27;4.85;;;;;;;9.02;100.00;102543.97;5107843;27;20126;-71
2024/02/19 00:37:39;;;;;;;23.35;5.68;;;;;;;9.03;100.00;102545.66;5137438;27;20043;-71
2024/02/19 00:40:27;;;;;;;23.95;5.57;;;;;;;9.02;100.00;102552.13;5104311;27;20139;-71
2024/02/19 00:43:15;;;;;;;23.48;5.43;;;;;;;9.00;100.00;102551.53;5125707;27;20172;-72
2024/02/19 00:46:04;;;;;;;21.38;5.22;;;;;;;8.99;100.00;102558.84;5097167;28;20126;-72
2024/02/19 00:48:52;;;;;;;23.05;4.63;;;;;;;8.96;100.00;102557.38;5124876;28;20048;-72
2024/02/19 00:51:42;;;;;;;21.08;4.82;;;;;;;8.99;100.00;102560.72;5116638;28;20043;-72
2024/02/19 00:54:30;;;;;;;26.27;5.50;;;;;;;8.96;100.00;102560.09;5140065;27;20046;-72
2024/02/19 00:57:18;;;;;;;26.85;5.53;;;;;;;8.95;100.00;102569.31;5104397;27;20027;-72
2024/02/19 01:00:06;;;;;;;22.17;5.47;;;;;;;8.92;100.00;102567.03;5138556;27;20157;-72
2024/02/19 01:02:54;;;;;;;21.27;5.63;;;;;;;8.95;100.00;102560.34;5074837;28;20055;-73
2024/02/19 01:05:42;;;;;;;24.00;5.53;;;;;;;8.96;100.00;102562.81;5079624;28;20048;-72
2024/02/19 01:08:31;;;;;;;18.83;4.40;;;;;;;8.98;100.00;102554.47;5092516;28;20048;-72
2024/02/19 01:11:19;;;;;;;20.55;5.18;;;;;;;8.98;100.00;102559.06;5079596;28;20052;-72
2024/02/19 01:14:07;;;;;;;22.85;5.18;;;;;;;8.99;100.00;102560.72;5099171;28;20058;-72
2024/02/19 01:16:55;;;;;;;24.77;5.75;;;;;;;8.98;100.00;102569.94;5099164;28;20047;-71
2024/02/19 01:19:44;;;;;;;25.15;5.35;;;;;;;8.98;100.00;102564.50;5084886;28;20488;-72
2024/02/19 01:22:33;;;;;;;21.40;4.97;;;;;;;8.98;100.00;102559.06;5098105;28;20043;-72
2024/02/19 01:25:21;;;;;;;23.02;5.57;;;;;;;8.98;100.00;102559.06;5113608;28;20652;-72
2024/02/19 01:28:09;;;;;;;26.13;5.80;;;;;;;8.99;100.00;102560.72;5099238;28;20551;-72
2024/02/19 01:30:57;;;;;;;21.90;4.53;;;;;;;8.99;100.00;102560.72;5097991;28;20066;-72
2024/02/19 01:33:46;;;;;;;22.92;5.20;;;;;;;8.99;100.00;102563.44;5114511;27;20491;-72
2024/02/19 01:36:35;;;;;;;19.85;5.43;;;;;;;8.99;100.00;102568.88;5133063;27;20384;-72
2024/02/19 01:39:23;;;;;;;24.02;5.07;;;;;;;8.99;100.00;102568.88;5078985;28;20115;-72
2024/02/19 01:42:12;;;;;;;20.35;5.55;;;;;;;9.01;100.00;102564.06;5098212;27;20031;-72
2024/02/19 01:45:00;;;;;;;24.13;5.70;;;;;;;9.01;100.00;102578.50;5117978;27;20035;-72
2024/02/19 01:47:48;;;;;;;20.42;5.07;;;;;;;9.01;100.00;102569.50;5119344;27;20507;-72
2024/02/19 01:50:37;;;;;;;20.60;5.10;;;;;;;9.01;100.00;102578.50;5105323;27;20051;-72
2024/02/19 01:53:26;;;;;;;24.25;5.35;;;;;;;9.02;100.00;102576.59;5117542;27;20186;-72
2024/02/19 01:56:14;;;;;;;19.42;4.90;;;;;;;9.03;100.00;102575.56;5113778;28;20488;-72
2024/02/19 01:59:02;;;;;;;22.92;5.18;;;;;;;9.03;100.00;102572.84;5097290;28;20039;-72
2024/02/19 02:01:50;;;;;;;21.42;4.85;;;;;;;9.03;100.00;102583.72;5113888;28;20051;-72
2024/02/19 02:04:39;;;;;;;22.30;5.82;;;;;;;9.03;100.00;102583.72;5091851;28;20086;-72
2024/02/19 02:07:27;;;;;;;26.90;5.65;;;;;;;9.01;100.00;102586.66;5083638;28;20054;-72
2024/02/19 02:10:15;;;;;;;19.77;4.70;;;;;;;9.01;100.00;102591.25;5083492;28;20051;-72
2024/02/19 02:13:03;;;;;;;23.52;5.47;;;;;;;9.00;100.00;102578.72;5098547;28;20090;-72
2024/02/19 02:15:51;;;;;;;19.83;4.25;;;;;;;9.00;100.00;102585.00;5113206;28;20047;-72
2024/02/19 02:18:39;;;;;;;19.70;4.95;;;;;;;9.00;100.00;102582.28;5064840;28;20059;-72
2024/02/19 02:21:27;;;;;;;17.70;4.72;;;;;;;9.02;100.00;102587.47;5098315;28;20051;-72
2024/02/19 02:24:15;;;;;;;21.77;5.00;;;;;;;9.02;100.00;102573.88;5113795;28;20140;-72
2024/02/19 02:27:03;;;;;;;22.42;5.15;;;;;;;9.03;100.00;102583.72;5113551;28;20388;-72
2024/02/19 02:29:51;;;;;;;20.90;4.70;;;;;;;9.03;100.00;102579.13;5084268;28;20047;-72
2024/02/19 02:32:39;;;;;;;15.77;4.25;;;;;;;9.05;100.00;102585.19;5071062;28;20626;-72
2024/02/19 02:35:28;;;;;;;21.15;4.93;;;;;;;9.06;100.00;102580.56;5090673;28;20048;-72
2024/02/19 02:38:16;;;;;;;19.90;4.78;;;;;;;9.06;100.00;102577.84;5089774;28;20559;-72
2024/02/19 02:41:04;;;;;;;17.48;4.40;;;;;;;9.05;100.00;102570.75;5077613;28;20500;-72
2024/02/19 02:43:52;;;;;;;17.92;4.32;;;;;;;9.04;100.00;102575.34;5091406;28;20143;-72
2024/02/19 02:46:40;;;;;;;18.85;5.00;;;;;;;9.06;100.00;102577.84;5096978;28;20044;-71
2024/02/19 02:49:28;;;;;;;20.85;5.05;;;;;;;9.06;100.00;102566.97;5097733;28;20087;-72
2024/02/19 02:52:16;;;;;;;20.00;5.03;;;;;;;9.07;100.00;102563.22;5095271;28;20130;-71
2024/02/19 02:55:05;;;;;;;19.20;4.82;;;;;;;9.05;100.00;102565.31;5113389;28;20074;-71
2024/02/19 02:57:53;;;;;;;24.45;5.65;;;;;;;9.02;100.00;102565.72;5118940;28;20043;-71
2024/02/19 03:00:41;;;;;;;23.20;5.25;;;;;;;9.02;100.00;102563.00;5079397;28;20042;-71
2024/02/19 03:03:32;;;;;;;20.75;4.65;;;;;;;9.01;100.00;102569.50;5123454;27;20055;-72
2024/02/19 03:06:21;;;;;;;17.98;4.68;;;;;;;9.01;100.00;102574.94;5123619;27;20506;-72
2024/02/19 03:09:09;;;;;;;21.52;4.80;;;;;;;9.00;100.00;102570.56;5118270;27;20055;-72
2024/02/19 03:11:57;;;;;;;21.80;4.95;;;;;;;8.97;100.00;102574.53;5100103;28;20058;-72
2024/02/19 03:14:44;;;;;;;20.40;4.82;;;;;;;8.96;100.00;102579.13;5111339;28;20043;-72
2024/02/19 03:17:32;;;;;;;18.52;4.32;;;;;;;8.96;100.00;102572.88;5096418;28;20108;-72
2024/02/19 03:20:23;;;;;;;21.80;4.45;;;;;;;8.98;100.00;102569.94;5081773;28;20381;-73
2024/02/19 03:23:11;;;;;;;22.65;5.18;;;;;;;9.00;100.00;102576.00;5123111;27;20442;-73
2024/02/19 03:25:59;;;;;;;19.08;5.25;;;;;;;8.99;100.00;102568.88;5131475;28;20047;-73
2024/02/19 03:28:47;;;;;;;20.05;4.90;;;;;;;8.98;100.00;102578.09;5088700;28;20389;-73
2024/02/19 03:31:35;;;;;;;18.75;4.90;;;;;;;8.95;100.00;102577.47;5096336;28;20143;-73
2024/02/19 03:34:24;;;;;;;20.05;5.18;;;;;;;8.94;100.00;102585.84;5071082;28;20488;-72
2024/02/19 03:37:15;;;;;;;19.65;5.15;;;;;;;8.93;100.00;102584.19;5093108;28;20493;-73
2024/02/19 03:40:06;;;;;;;18.60;5.25;;;;;;;8.94;100.00;102572.25;5077001;28;20044;-73
2024/02/19 03:42:55;;;;;;;22.05;5.15;;;;;;;8.95;100.00;102566.59;5104763;28;20075;-72
2024/02/19 03:45:43;;;;;;;18.63;4.85;;;;;;;8.98;100.00;102556.34;5113123;28;20138;-71
2024/02/19 03:48:34;;;;;;;19.05;4.97;;;;;;;9.00;100.00;102546.94;5112439;28;20055;-72
2024/02/19 03:51:22;;;;;;;21.45;5.32;;;;;;;9.00;100.00;102552.38;5095581;28;20071;-73
2024/02/19 03:54:11;;;;;;;22.80;6.22;;;;;;;9.00;100.00;102562.41;5090972;28;20055;-72
2024/02/19 03:57:01;;;;;;;17.42;4.68;;;;;;;8.99;100.00;102561.56;5093807;28;20086;-71
2024/02/19 03:59:49;;;;;;;20.33;5.40;;;;;;;9.00;100.00;102574.13;5093880;28;20054;-72
2024/02/19 04:02:39;;;;;;;18.08;5.10;;;;;;;9.00;100.00;102567.84;5086388;28;20097;-71
2024/02/19 04:05:28;;;;;;;23.63;5.95;;;;;;;8.99;100.00;102571.59;5116446;27;20050;-72
2024/02/19 04:08:16;;;;;;;24.05;5.65;;;;;;;8.97;100.00;102579.97;5107315;27;20134;-72
2024/02/19 04:11:04;;;;;;;19.15;5.47;;;;;;;8.96;100.00;102573.69;5120354;27;20110;-71
2024/02/19 04:13:52;;;;;;;18.73;4.68;;;;;;;8.95;100.00;102577.47;5135529;27;20517;-72
2024/02/19 04:16:43;;;;;;;21.35;5.40;;;;;;;8.94;100.00;102583.94;5095309;28;20048;-73
2024/02/19 04:19:31;;;;;;;19.83;4.63;;;;;;;8.93;100.00;102582.28;5073390;28;20517;-72
2024/02/19 04:22:19;;;;;;;25.98;5.75;;;;;;;8.92;100.00;102594.22;5067983;28;20047;-73
2024/02/19 04:25:08;;;;;;;19.08;5.15;;;;;;;8.93;100.00;102584.19;5115445;28;20040;-73
2024/02/19 04:27:56;;;;;;;18.40;5.10;;;;;;;8.95;100.00;102580.19;5095269;28;20040;-71
2024/02/19 04:30:44;;;;;;;21.35;5.43;;;;;;;8.99;100.00;102582.47;5094332;28;20109;-72
2024/02/19 04:33:32;;;;;;;18.52;4.93;;;;;;;9.00;100.00;102578.72;5085274;28;20571;-72
2024/02/19 04:36:20;;;;;;;22.90;5.30;;;;;;;9.01;100.00;102585.81;5076413;28;20048;-72
2024/02/19 04:39:08;;;;;;;23.20;6.32;;;;;;;9.01;100.00;102589.38;5094339;28;20040;-72
2024/02/19 04:41:56;;;;;;;19.85;4.93;;;;;;;9.00;100.00;102595.88;5073823;28;20048;-71
2024/02/19 04:44:45;;;;;;;16.48;5.10;;;;;;;9.00;100.00;102579.56;5056007;28;20150;-72
2024/02/19 04:47:33;;;;;;;19.80;4.90;;;;;;;9.00;100.00;102586.88;5079770;28;20040;-72
2024/02/19 04:50:21;;;;;;;19.23;5.22;;;;;;;8.99;100.00;102583.31;5105251;28;20051;-72
2024/02/19 04:53:09;;;;;;;20.38;5.50;;;;;;;8.99;100.00;102582.47;5097923;28;20077;-72
2024/02/19 04:56:01;;;;;;;19.95;4.60;;;;;;;9.01;100.00;102580.38;5103976;28;20051;-72
2024/02/19 04:58:49;;;;;;;17.83;4.40;;;;;;;9.02;100.00;102584.75;5087443;28;20040;-71
2024/02/19 05:01:37;;;;;;;20.38;4.60;;;;;;;9.03;100.00;102572.84;5088419;28;20078;-70
2024/02/19 05:04:26;;;;;;;16.52;4.72;;;;;;;9.04;100.00;102572.63;5144609;27;20039;-71
2024/02/19 05:07:15;;;;;;;20.23;4.63;;;;;;;9.07;100.00;102584.97;5115103;27;20051;-72
2024/02/19 05:10:04;;;;;;;19.90;4.97;;;;;;;9.07;100.00;102584.97;5123143;27;20404;-72
2024/02/19 05:12:53;;;;;;;20.90;4.63;;;;;;;9.08;100.00;102576.59;5105203;28;20032;-72
2024/02/19 05:15:42;;;;;;;17.10;4.38;;;;;;;9.08;100.00;102564.88;5127165;28;20043;-72
2024/02/19 05:18:30;;;;;;;19.20;4.65;;;;;;;9.07;100.00;102572.22;5090732;28;20105;-71
2024/02/19 05:21:18;;;;;;;17.90;4.78;;;;;;;9.07;100.00;102571.38;5117325;28;20079;-72
2024/02/19 05:24:06;;;;;;;18.65;4.72;;;;;;;9.07;100.00;102579.53;5133830;27;20057;-72
2024/02/19 05:26:54;;;;;;;17.17;4.72;;;;;;;9.07;100.00;102574.09;5079710;27;20047;-72
2024/02/19 05:29:43;;;;;;;17.60;4.28;;;;;;;9.09;100.00;102570.13;5097274;28;20043;-72
2024/02/19 05:32:31;;;;;;;18.83;4.80;;;;;;;9.11;100.00;102575.31;5110179;28;20044;-72
2024/02/19 05:35:19;;;;;;;14.27;4.15;;;;;;;9.13;100.00;102578.66;5091797;28;20498;-72
2024/02/19 05:38:07;;;;;;;19.92;4.78;;;;;;;9.10;100.00;102569.06;5093763;28;20507;-72
2024/02/19 05:40:55;;;;;;;15.82;4.25;;;;;;;9.09;100.00;102577.41;5093586;28;20125;-72
2024/02/19 05:43:43;;;;;;;19.92;4.57;;;;;;;9.06;100.00;102580.56;5113136;28;20043;-72
2024/02/19 05:46:32;;;;;;;19.15;4.25;;;;;;;9.04;100.00;102579.94;5107103;28;20177;-73
2024/02/19 05:49:20;;;;;;;15.60;3.75;;;;;;;9.04;100.00;102577.22;5090436;28;20047;-72
2024/02/19 05:52:08;;;;;;;17.45;4.53;;;;;;;9.06;100.00;102575.13;5095510;28;20059;-72
2024/02/19 05:54:58;;;;;;;18.15;4.18;;;;;;;9.06;100.00;102572.41;5092250;28;20093;-71
2024/02/19 05:57:47;;;;;;;20.75;4.60;;;;;;;9.08;100.00;102578.47;5111297;28;20371;-71
2024/02/19 06:00:34;;;;;;;13.73;4.20;;;;;;;9.08;100.00;102581.19;5095413;28;20494;-72
2024/02/19 06:03:25;;;;;;;17.83;4.50;;;;;;;9.09;100.00;102577.41;5086871;28;20051;-69
2024/02/19 06:06:13;;;;;;;21.20;4.40;;;;;;;9.09;100.00;102582.84;5119927;28;20104;-72
2024/02/19 06:09:04;;;;;;;12.50;3.70;;;;;;;9.10;100.00;102579.94;5117542;28;20074;-72
2024/02/19 06:11:53;;;;;;;20.48;4.13;;;;;;;9.11;100.00;102581.59;5098141;28;20094;-70
2024/02/19 06:14:41;;;;;;;14.68;4.03;;;;;;;9.13;100.00;102573.22;5092561;28;20123;-70
2024/02/19 06:17:29;;;;;;;16.95;4.10;;;;;;;9.13;100.00;102573.22;5110448;28;20657;-73
2024/02/19 06:20:17;;;;;;;16.17;3.97;;;;;;;9.14;100.00;102572.19;5084338;28;20054;-72
2024/02/19 06:23:05;;;;;;;14.98;3.85;;;;;;;9.13;100.00;102567.78;5083180;28;20047;-72
2024/02/19 06:25:54;;;;;;;14.52;4.32;;;;;;;9.13;100.00;102584.09;5114792;28;20035;-72
2024/02/19 06:28:59;;;;;;;19.45;4.30;;;;;;;9.12;100.00;102585.16;5137579;27;20047;-72
2024/02/19 06:31:50;;;;;;;19.27;4.47;;;;;;;9.12;100.00;102587.88;5103461;27;20054;-72
2024/02/19 06:34:39;;;;;;;16.27;3.95;;;;;;;9.09;100.00;102582.84;4409663;27;10000691;-70
2024/02/19 06:37:31;;;;;;;17.35;4.50;;;;;;;9.09;100.00;102580.13;5072083;28;20048;-71
2024/02/19 06:40:19;;;;;;;19.02;4.80;;;;;;;9.09;100.00;102585.56;5098594;28;20053;-72
2024/02/19 06:43:07;;;;;;;15.50;3.92;;;;;;;9.09;100.00;102589.16;5088687;28;20048;-71
2024/02/19 06:45:55;;;;;;;18.98;4.10;;;;;;;9.11;100.00;102591.63;5088580;28;20120;-71
2024/02/19 06:48:44;;;;;;;16.10;4.47;;;;;;;9.10;100.00;102592.69;5088050;28;20040;-72
2024/02/19 06:51:34;;;;;;;15.40;4.38;;;;;;;9.09;100.00;102591.88;5058672;28;20055;-73
2024/02/19 06:54:22;;;;;;;14.63;3.63;;;;;;;9.11;100.00;102588.91;5111925;28;20082;-71
2024/02/19 06:57:15;;;;;;;16.55;4.47;;;;;;;9.13;100.00;102584.09;5102389;28;20089;-71
2024/02/19 07:00:03;;;;;;;13.60;3.90;;;;;;;9.13;100.00;102581.38;5097751;28;20117;-71
2024/02/19 07:02:51;;;;;;;19.73;4.95;;;;;;;9.14;100.00;102583.91;5113898;27;20039;-71
2024/02/19 07:05:42;;;;;;;16.10;3.95;;;;;;;9.14;100.00;102585.78;5107569;28;20039;-72
2024/02/19 07:08:30;;;;;;;13.98;4.03;;;;;;;9.12;100.00;102571.56;5104516;28;20047;-72
2024/02/19 07:11:18;;;;;;;16.00;4.57;;;;;;;9.13;100.00;102574.06;5088358;28;20120;-71
2024/02/19 07:14:06;;;;;;;17.23;4.68;;;;;;;9.14;100.00;102570.31;5072763;28;20044;-71
2024/02/19 07:16:54;;;;;;;19.95;5.03;;;;;;;9.15;100.00;102569.25;5076286;28;20085;-71
2024/02/19 07:19:42;;;;;;;16.40;4.60;;;;;;;9.14;100.00;102580.34;5106403;28;20043;-72
2024/02/19 07:22:30;;;;;;;22.48;6.13;;;;;;;9.13;100.00;102584.09;5096816;28;20082;-72
2024/02/19 07:25:18;;;;;;;19.00;4.85;;;;;;;9.14;100.00;102574.91;5132796;27;20043;-72
2024/02/19 07:28:09;;;;;;;18.42;4.97;;;;;;;9.20;100.00;102575.94;5079601;28;20051;-71
2024/02/19 07:30:58;;;;;;;14.30;4.55;;;;;;;9.22;100.00;102576.56;5065109;28;20043;-72
2024/02/19 07:33:46;;;;;;;19.23;4.50;;;;;;;9.21;100.00;102572.97;5074401;28;20059;-71
2024/02/19 07:36:36;;;;;;;16.27;4.60;;;;;;;9.21;100.00;102575.69;5067974;28;20048;-71
2024/02/19 07:39:24;;;;;;;17.65;5.13;;;;;;;9.22;100.00;102577.38;5095827;28;20040;-71
2024/02/19 07:42:12;;;;;;;20.45;5.40;;;;;;;9.21;100.00;102569.44;5077201;28;20040;-71
2024/02/19 07:45:00;;;;;;;18.77;4.55;;;;;;;9.21;100.00;102569.44;5114060;28;20044;-73
2024/02/19 07:47:48;;;;;;;15.77;4.47;;;;;;;9.21;100.00;102574.88;5081833;28;20070;-73
2024/02/19 07:50:37;;;;;;;18.73;5.22;;;;;;;9.22;100.00;102574.66;5097947;28;20051;-71
2024/02/19 07:53:25;;;;;;;17.20;4.45;;;;;;;9.24;100.00;102578.00;5065990;28;20043;-72
2024/02/19 07:56:13;;;;;;;19.20;5.10;;;;;;;9.26;100.00;102578.63;5102228;28;20116;-71
2024/02/19 07:59:01;;;;;;;19.45;5.22;;;;;;;9.23;100.00;102575.50;5105678;28;20047;-71
2024/02/19 08:01:49;;;;;;;14.65;4.65;;;;;;;9.26;100.00;102580.50;5116986;28;20058;-72
2024/02/19 08:04:37;;;;;;;21.25;5.63;;;;;;;9.26;100.00;102565.03;5108223;28;20047;-73
2024/02/19 08:07:25;;;;;;;18.73;5.35;;;;;;;9.26;100.00;102562.31;5076659;28;20400;-74
2024/02/19 08:10:14;;;;;;;19.08;5.57;;;;;;;9.26;100.00;102572.31;5095577;28;20097;-73
2024/02/19 08:13:03;;;;;;;21.23;5.68;;;;;;;9.27;100.00;102572.13;5097437;28;20056;-73
2024/02/19 08:15:51;;;;;;;19.98;6.50;;;;;;;9.29;100.00;102566.47;5087147;28;20099;-72
2024/02/19 08:18:40;;;;;;;19.08;5.88;;;;;;;9.30;100.00;102549.91;5080146;28;20051;-74
2024/02/19 08:21:28;;;;;;;18.38;6.00;;;;;;;9.34;100.00;102575.66;5050587;28;20040;-73
2024/02/19 08:24:16;;;;;;;20.08;6.60;;;;;;;9.36;100.00;102567.28;5099807;28;20120;-73
2024/02/19 08:27:05;;;;;;;21.75;6.28;;;;;;;9.39;100.00;102564.13;5072658;28;20105;-73
2024/02/19 08:29:53;;;;;;;23.02;6.35;;;;;;;9.41;100.00;102570.19;5061244;28;20186;-74
2024/02/19 08:32:41;;;;;;;20.52;6.68;;;;;;;9.43;100.00;102573.53;5078788;28;20134;-74
2024/02/19 08:35:29;;;;;;;23.77;6.72;;;;;;;9.45;100.00;102573.28;5097928;28;20051;-76
2024/02/19 08:38:18;;;;;;;20.33;7.30;;;;;;;9.43;100.00;102584.41;5088831;28;20449;-74
2024/02/19 08:41:05;;;;;;;22.52;7.82;;;;;;;9.46;100.00;102581.25;5112909;28;20054;-73
2024/02/19 08:43:53;;;;;;;20.77;8.05;;;;;;;9.45;100.00;102578.72;5059785;28;20059;-73
2024/02/19 08:46:41;;;;;;;24.67;8.52;;;;;;;9.44;100.00;102577.91;5045217;28;20055;-73
2024/02/19 08:49:30;;;;;;;24.25;8.27;;;;;;;9.45;100.00;102585.00;5051846;28;20073;-73
2024/02/19 08:52:18;;;;;;;20.70;7.40;;;;;;;9.46;100.00;102583.97;5064636;28;20044;-72
2024/02/19 08:55:06;;;;;;;18.88;7.05;;;;;;;9.47;100.00;102579.34;5077727;28;20059;-72
2024/02/19 08:57:54;;;;;;;24.00;8.48;;;;;;;9.47;100.00;102576.63;5098666;28;20513;-73
2024/02/19 09:00:42;;;;;;;22.13;7.38;;;;;;;9.46;100.00;102583.97;5050292;28;20094;-73
2024/02/19 09:03:30;;;;;;;20.02;7.45;;;;;;;9.47;100.00;102592.97;5091468;28;20093;-73
2024/02/19 09:06:18;;;;;;;19.92;7.50;;;;;;;9.49;100.00;102593.56;5102389;28;20059;-73
2024/02/19 09:09:07;;;;;;;21.17;7.82;;;;;;;9.51;100.00;102596.91;5127529;28;20070;-72
2024/02/19 09:11:55;;;;;;;22.88;8.13;;;;;;;9.51;100.00;102594.19;5096609;28;20082;-72
2024/02/19 09:14:43;;;;;;;25.73;7.43;;;;;;;9.53;100.00;102592.09;5082380;28;20044;-73
2024/02/19 09:17:31;;;;;;;23.55;7.78;;;;;;;9.54;100.00;102605.47;5124573;28;20042;-73
2024/02/19 09:20:19;;;;;;;23.25;7.95;;;;;;;9.56;100.00;102594.38;5136116;28;20051;-73
2024/02/19 09:23:07;;;;;;;18.35;7.15;;;;;;;9.57;100.00;102590.59;5123099;28;20043;-73
2024/02/19 09:25:55;;;;;;;24.73;7.40;;;;;;;9.61;100.00;102586.41;5107040;28;20093;-73
2024/02/19 09:28:46;;;;;;;19.75;7.95;;;;;;;9.62;100.00;102590.81;5152388;27;20056;-73
2024/02/19 09:31:34;;;;;;;21.00;7.50;;;;;;;9.63;100.00;102592.47;5136851;27;20046;-74
2024/02/19 09:34:22;;;;;;;22.05;8.38;;;;;;;9.64;100.00;102594.13;5091990;27;20051;-72
2024/02/19 09:37:11;;;;;;;18.33;8.18;;;;;;;9.65;100.00;102592.25;5120705;27;20582;-72
2024/02/19 09:39:59;;;;;;;25.50;9.00;;;;;;;9.69;100.00;102593.47;5113827;27;20118;-73
2024/02/19 09:42:47;;;;;;;22.48;8.15;;;;;;;9.69;100.00;102594.31;5065367;28;20105;-72
2024/02/19 09:45:37;;;;;;;24.70;9.15;;;;;;;9.72;100.00;102588.44;5070011;28;20050;-73
2024/02/19 09:48:25;;;;;;;25.92;9.27;;;;;;;9.72;100.00;102584.88;5093821;28;20388;-71
2024/02/19 09:51:21;;;;;;;24.83;9.55;;;;;;;9.78;100.00;102576.66;5073872;28;20056;-73
2024/02/19 09:54:25;;;;;;;24.45;9.13;;;;;;;9.77;100.00;102579.59;5094696;28;20044;-74
2024/02/19 09:57:13;;;;;;;26.55;9.95;;;;;;;9.75;100.00;102590.72;5080560;28;20055;-73
2024/02/19 10:00:03;;;;;;;22.65;10.23;;;;;;;9.79;100.00;102582.94;5093414;28;20516;-73
2024/02/19 10:02:54;;;;;;;32.90;10.23;;;;;;;9.78;100.00;102582.09;5093618;28;20052;-73
2024/02/19 10:05:42;;;;;;;24.60;11.05;;;;;;;9.78;100.00;102575.81;5108270;28;20478;-73
2024/02/19 10:08:30;;;;;;;27.60;10.93;;;;;;;9.78;100.00;102582.09;5105333;27;20051;-73
2024/02/19 10:11:20;;;;;;;28.35;11.73;;;;;;;9.76;100.00;102583.38;5090938;27;20043;-74
2024/02/19 10:14:10;;;;;;;24.90;12.48;;;;;;;9.74;100.00;102588.19;5118874;27;20043;-74
2024/02/19 10:17:05;;;;;;;28.95;12.45;;;;;;;9.73;100.00;102589.25;5114445;28;20046;-72
2024/02/19 10:20:06;;;;;;;26.63;12.48;;;;;;;9.74;100.00;102588.19;5095961;28;20071;-73
2024/02/19 10:22:54;;;;;;;27.83;12.20;;;;;;;9.77;100.00;102585.06;5098891;28;20134;-71
2024/02/19 10:25:42;;;;;;;22.73;10.60;;;;;;;9.78;100.00;102584.00;5097230;28;20044;-73
2024/02/19 10:28:31;;;;;;;20.95;9.38;;;;;;;9.79;100.00;102591.94;5112395;28;20135;-72
2024/02/19 10:31:19;;;;;;;23.77;10.35;;;;;;;9.80;100.00;102585.44;5098213;27;20043;-73
2024/02/19 10:34:14;;;;;;;20.42;9.30;;;;;;;9.81;100.00;102580.81;5117582;27;20043;-72
2024/02/19 10:37:05;;;;;;;25.25;10.57;;;;;;;9.82;100.00;102577.06;5104510;27;20120;-71
2024/02/19 10:39:53;;;;;;;20.48;8.93;;;;;;;9.85;100.00;102576.63;5117481;27;20521;-72
2024/02/19 10:42:41;;;;;;;20.50;8.85;;;;;;;9.87;100.00;102565.50;5108559;28;20044;-72
2024/02/19 10:45:30;;;;;;;25.20;8.77;;;;;;;9.91;100.00;102570.31;5097348;28;20058;-72
2024/02/19 10:48:19;;;;;;;18.42;7.97;;;;;;;9.90;100.00;102567.78;5094684;28;20450;-73
2024/02/19 10:51:07;;;;;;;22.73;9.43;;;;;;;9.93;100.00;102564.63;5066232;28;20063;-72
2024/02/19 10:54:03;;;;;;;23.45;8.43;;;;;;;9.95;100.00;102554.34;5082180;28;20161;-73
2024/02/19 10:56:51;;;;;;;23.15;9.55;;;;;;;9.91;100.00;102558.56;5081823;28;20051;-72
2024/02/19 10:59:41;;;;;;;24.30;9.80;;;;;;;9.90;100.00;102546.84;5056971;28;20037;-73
2024/02/19 11:02:29;;;;;;;24.50;9.65;;;;;;;9.96;100.00;102550.59;5079106;28;20438;-73
2024/02/19 11:05:17;;;;;;;28.50;9.32;;;;;;;9.94;100.00;102547.25;5073782;28;20044;-73
2024/02/19 11:08:21;;;;;;;24.65;8.85;;;;;;;9.92;100.00;102538.44;5103450;27;20051;-72
2024/02/19 11:11:09;;;;;;;22.42;8.88;;;;;;;9.92;100.00;102535.72;5083862;28;20048;-72
2024/02/19 11:13:58;;;;;;;19.23;8.57;;;;;;;9.92;100.00;102533.84;5056939;28;20123;-71
2024/02/19 11:16:46;;;;;;;20.02;8.07;;;;;;;9.94;100.00;102530.91;5091189;28;20148;-72
2024/02/19 11:19:40;;;;;;;19.83;8.05;;;;;;;9.98;100.00;102529.38;5091192;27;20076;-72
2024/02/19 11:22:31;;;;;;;18.38;7.38;;;;;;;10.00;100.00;102525.38;5091808;28;20070;-72
2024/02/19 11:25:21;;;;;;;21.80;7.82;;;;;;;10.01;100.00;102521.63;5083076;28;20048;-72
2024/02/19 11:28:12;;;;;;;20.45;7.00;;;;;;;10.03;100.00;102519.50;5112142;28;20061;-73
2024/02/19 11:31:01;;;;;;;21.92;7.10;;;;;;;10.07;100.00;102513.59;5094954;28;20122;-73
2024/02/19 11:33:50;;;;;;;19.88;7.88;;;;;;;10.08;100.00;102510.69;5091399;28;20510;-73
2024/02/19 11:36:38;;;;;;;18.40;7.47;;;;;;;10.09;100.00;102509.59;5090257;28;20044;-72
2024/02/19 11:39:26;;;;;;;17.90;7.32;;;;;;;10.12;100.00;102511.88;5082307;28;20072;-72
2024/02/19 11:42:17;;;;;;;22.33;8.27;;;;;;;10.14;100.00;102498.88;5110600;28;20058;-72
2024/02/19 11:45:06;;;;;;;18.63;7.53;;;;;;;10.13;100.00;102502.66;5100586;28;20043;-73
2024/02/19 11:47:54;;;;;;;18.88;6.88;;;;;;;10.15;100.00;102495.09;5097664;28;20055;-73
2024/02/19 11:50:44;;;;;;;15.88;6.57;;;;;;;10.18;100.00;102491.09;5113048;28;20044;-69
2024/02/19 11:53:32;;;;;;;21.33;7.63;;;;;;;10.14;100.00;102487.97;5095002;28;20050;-72
2024/02/19 11:56:20;;;;;;;22.08;7.88;;;;;;;10.14;100.00;102490.69;5083384;28;20039;-73
2024/02/19 11:59:08;;;;;;;21.77;7.70;;;;;;;10.13;100.00;102486.31;5078593;28;20052;-72
2024/02/19 12:01:56;;;;;;;17.95;7.47;;;;;;;10.12;100.00;102483.81;5056732;28;20127;-72
2024/02/19 12:04:50;;;;;;;21.08;7.03;;;;;;;10.15;100.00;102497.84;5101796;28;20050;-73
2024/02/19 12:07:39;;;;;;;19.85;6.90;;;;;;;10.13;100.00;102490.94;5079507;28;20047;-72
2024/02/19 12:10:27;;;;;;;19.15;6.65;;;;;;;10.14;100.00;102484.41;5101614;28;20495;-72
2024/02/19 12:13:19;;;;;;;16.80;5.95;;;;;;;10.15;100.00;102484.22;5110619;28;20487;-73
2024/02/19 12:16:08;;;;;;;16.70;6.75;;;;;;;10.16;100.00;102479.59;5069647;28;20058;-73
2024/02/19 12:18:56;;;;;;;17.98;7.00;;;;;;;10.17;100.00;102473.94;5093879;28;20046;-72
2024/02/19 12:21:45;;;;;;;20.98;7.35;;;;;;;10.16;100.00;102463.25;5075871;28;20411;-73
2024/02/19 12:24:33;;;;;;;20.02;7.30;;;;;;;10.16;100.00;102472.25;5100868;28;20039;-73
2024/02/19 12:27:21;;;;;;;23.55;6.78;;;;;;;10.17;100.00;102465.75;5079200;28;20051;-72
2024/02/19 12:30:10;;;;;;;23.52;7.97;;;;;;;10.14;100.00;102463.47;5076017;28;20040;-71
2024/02/19 12:32:58;;;;;;;22.35;7.93;;;;;;;10.16;100.00;102463.25;5090889;28;20488;-71
2024/02/19 12:35:47;;;;;;;19.15;7.57;;;;;;;10.13;100.00;102459.09;5113009;27;20415;-73
2024/02/19 12:38:41;;;;;;;22.60;8.55;;;;;;;10.12;100.00;102457.41;5075954;28;20408;-72
2024/02/19 12:41:29;;;;;;;19.80;8.30;;;;;;;10.13;100.00;102459.09;5078870;28;20131;-71
2024/02/19 12:44:17;;;;;;;16.75;7.72;;;;;;;10.11;100.00;102455.75;5065747;28;20052;-73
2024/02/19 12:47:05;;;;;;;19.95;8.75;;;;;;;10.15;100.00;102448.81;5073704;27;20040;-72
2024/02/19 12:49:53;;;;;;;19.27;8.10;;;;;;;10.16;100.00;102447.72;5066347;28;20484;-72
2024/02/19 12:52:43;;;;;;;22.48;8.45;;;;;;;10.16;100.00;102447.72;5095761;27;20559;-72
2024/02/19 12:55:31;;;;;;;24.45;9.70;;;;;;;10.16;100.00;102453.19;5103738;27;20046;-72